sensor_id;sensor_type;location;lat;lon;timestamp;P1;durP1;ratioP1;P2;durP2;ratioP2
12762;SDS011;6445;52.490;13.378;2023-02-24T00:01:37;57.80;;;21.85;;
12762;SDS011;6445;52.490;13.378;2023-02-24T00:04:07;58.83;;;22.02;;
12762;SDS011;6445;52.490;13.378;2023-02-24T00:06:36;57.67;;;22.65;;
12762;SDS011;6445;52.490;13.378;2023-02-24T00:09:17;51.72;;;20.50;;
12762;SDS011;6445;52.490;13.378;2023-02-24T00:11:51;53.13;;;20.52;;
12762;SDS011;6445;52.490;13.378;2023-02-24T00:14:20;52.28;;;21.10;;
12762;SDS011;6445;52.490;13.378;2023-02-24T00:16:46;52.88;;;20.55;;
12762;SDS011;6445;52.490;13.378;2023-02-24T00:19:12;54.63;;;20.25;;
12762;SDS011;6445;52.490;13.378;2023-02-24T00:21:42;58.50;;;20.45;;
12762;SDS011;6445;52.490;13.378;2023-02-24T00:24:09;50.38;;;19.27;;
12762;SDS011;6445;52.490;13.378;2023-02-24T00:26:35;50.05;;;19.88;;
12762;SDS011;6445;52.490;13.378;2023-02-24T00:29:02;57.25;;;20.15;;
12762;SDS011;6445;52.490;13.378;2023-02-24T00:31:29;60.17;;;19.83;;
12762;SDS011;6445;52.490;13.378;2023-02-24T00:33:55;48.83;;;18.85;;
12762;SDS011;6445;52.490;13.378;2023-02-24T00:36:22;49.30;;;17.58;;
12762;SDS011;6445;52.490;13.378;2023-02-24T00:38:48;47.20;;;18.38;;
12762;SDS011;6445;52.490;13.378;2023-02-24T00:41:19;49.38;;;18.30;;
12762;SDS011;6445;52.490;13.378;2023-02-24T00:43:46;50.47;;;17.45;;
12762;SDS011;6445;52.490;13.378;2023-02-24T00:46:13;46.45;;;16.88;;
12762;SDS011;6445;52.490;13.378;2023-02-24T00:48:44;43.85;;;16.58;;
12762;SDS011;6445;52.490;13.378;2023-02-24T00:51:14;43.05;;;15.65;;
12762;SDS011;6445;52.490;13.378;2023-02-24T00:53:42;34.35;;;12.40;;
12762;SDS011;6445;52.490;13.378;2023-02-24T00:56:09;30.10;;;12.05;;
12762;SDS011;6445;52.490;13.378;2023-02-24T00:58:40;33.90;;;11.32;;
12762;SDS011;6445;52.490;13.378;2023-02-24T01:01:17;23.40;;;10.82;;
12762;SDS011;6445;52.490;13.378;2023-02-24T01:03:45;31.00;;;11.07;;
12762;SDS011;6445;52.490;13.378;2023-02-24T01:06:16;29.50;;;10.90;;
12762;SDS011;6445;52.490;13.378;2023-02-24T01:08:44;32.17;;;10.77;;
12762;SDS011;6445;52.490;13.378;2023-02-24T01:11:12;30.90;;;10.68;;
12762;SDS011;6445;52.490;13.378;2023-02-24T01:14:05;24.55;;;9.75;;
12762;SDS011;6445;52.490;13.378;2023-02-24T01:16:37;23.75;;;9.25;;
12762;SDS011;6445;52.490;13.378;2023-02-24T01:19:05;22.05;;;8.07;;
12762;SDS011;6445;52.490;13.378;2023-02-24T01:21:31;19.40;;;7.05;;
12762;SDS011;6445;52.490;13.378;2023-02-24T01:23:56;23.23;;;7.47;;
12762;SDS011;6445;52.490;13.378;2023-02-24T01:26:21;12.60;;;5.45;;
12762;SDS011;6445;52.490;13.378;2023-02-24T01:28:47;18.98;;;6.35;;
12762;SDS011;6445;52.490;13.378;2023-02-24T01:31:13;17.77;;;6.53;;
12762;SDS011;6445;52.490;13.378;2023-02-24T01:33:44;19.58;;;6.75;;
12762;SDS011;6445;52.490;13.378;2023-02-24T01:36:11;19.85;;;6.35;;
12762;SDS011;6445;52.490;13.378;2023-02-24T01:38:39;20.25;;;6.75;;
12762;SDS011;6445;52.490;13.378;2023-02-24T01:41:06;14.77;;;5.30;;
12762;SDS011;6445;52.490;13.378;2023-02-24T01:46:23;14.00;;;4.28;;
12762;SDS011;6445;52.490;13.378;2023-02-24T01:48:49;17.42;;;5.65;;
12762;SDS011;6445;52.490;13.378;2023-02-24T01:51:17;15.45;;;5.18;;
12762;SDS011;6445;52.490;13.378;2023-02-24T01:53:43;21.08;;;4.20;;
12762;SDS011;6445;52.490;13.378;2023-02-24T01:56:09;14.93;;;4.13;;
12762;SDS011;6445;52.490;13.378;2023-02-24T01:58:37;18.88;;;4.30;;
12762;SDS011;6445;52.490;13.378;2023-02-24T02:01:04;19.85;;;4.13;;
12762;SDS011;6445;52.490;13.378;2023-02-24T02:03:33;15.85;;;3.70;;
12762;SDS011;6445;52.490;13.378;2023-02-24T02:06:03;18.23;;;4.30;;
12762;SDS011;6445;52.490;13.378;2023-02-24T02:08:33;21.58;;;4.50;;
12762;SDS011;6445;52.490;13.378;2023-02-24T02:11:05;14.52;;;3.65;;
12762;SDS011;6445;52.490;13.378;2023-02-24T02:13:33;18.63;;;3.47;;
12762;SDS011;6445;52.490;13.378;2023-02-24T02:16:05;13.63;;;3.35;;
12762;SDS011;6445;52.490;13.378;2023-02-24T02:19:07;17.27;;;3.30;;
12762;SDS011;6445;52.490;13.378;2023-02-24T02:21:56;11.50;;;3.83;;
12762;SDS011;6445;52.490;13.378;2023-02-24T02:24:35;15.15;;;3.45;;
12762;SDS011;6445;52.490;13.378;2023-02-24T02:27:29;18.00;;;4.13;;
12762;SDS011;6445;52.490;13.378;2023-02-24T02:30:17;20.50;;;3.90;;
12762;SDS011;6445;52.490;13.378;2023-02-24T02:36:21;14.63;;;3.72;;
12762;SDS011;6445;52.490;13.378;2023-02-24T02:38:58;14.68;;;3.60;;
12762;SDS011;6445;52.490;13.378;2023-02-24T02:44:29;18.52;;;3.55;;
12762;SDS011;6445;52.490;13.378;2023-02-24T02:47:15;17.42;;;3.35;;
12762;SDS011;6445;52.490;13.378;2023-02-24T02:49:48;21.40;;;4.18;;
12762;SDS011;6445;52.490;13.378;2023-02-24T02:52:27;12.65;;;3.40;;
12762;SDS011;6445;52.490;13.378;2023-02-24T02:55:00;19.20;;;3.63;;
12762;SDS011;6445;52.490;13.378;2023-02-24T02:57:31;12.23;;;3.28;;
12762;SDS011;6445;52.490;13.378;2023-02-24T03:00:00;16.02;;;3.17;;
12762;SDS011;6445;52.490;13.378;2023-02-24T03:02:45;10.85;;;3.20;;
12762;SDS011;6445;52.490;13.378;2023-02-24T03:05:15;12.77;;;3.03;;
12762;SDS011;6445;52.490;13.378;2023-02-24T03:07:46;14.27;;;3.20;;
12762;SDS011;6445;52.490;13.378;2023-02-24T03:10:16;11.90;;;2.80;;
12762;SDS011;6445;52.490;13.378;2023-02-24T03:12:53;11.60;;;3.15;;
12762;SDS011;6445;52.490;13.378;2023-02-24T03:15:22;9.95;;;2.38;;
12762;SDS011;6445;52.490;13.378;2023-02-24T03:20:53;14.85;;;2.80;;
12762;SDS011;6445;52.490;13.378;2023-02-24T03:23:25;9.18;;;2.70;;
12762;SDS011;6445;52.490;13.378;2023-02-24T03:25:57;8.15;;;2.92;;
12762;SDS011;6445;52.490;13.378;2023-02-24T03:28:47;13.50;;;2.90;;
12762;SDS011;6445;52.490;13.378;2023-02-24T03:32:25;12.75;;;2.92;;
12762;SDS011;6445;52.490;13.378;2023-02-24T03:34:23;9.38;;;2.65;;
12762;SDS011;6445;52.490;13.378;2023-02-24T03:36:54;13.43;;;3.30;;
12762;SDS011;6445;52.490;13.378;2023-02-24T03:39:20;12.85;;;2.65;;
12762;SDS011;6445;52.490;13.378;2023-02-24T03:42:04;13.82;;;3.42;;
12762;SDS011;6445;52.490;13.378;2023-02-24T03:44:32;11.60;;;2.92;;
12762;SDS011;6445;52.490;13.378;2023-02-24T03:46:58;14.00;;;3.13;;
12762;SDS011;6445;52.490;13.378;2023-02-24T03:49:25;11.50;;;3.40;;
12762;SDS011;6445;52.490;13.378;2023-02-24T03:51:54;10.55;;;3.00;;
12762;SDS011;6445;52.490;13.378;2023-02-24T03:54:43;10.10;;;3.28;;
12762;SDS011;6445;52.490;13.378;2023-02-24T03:57:41;12.93;;;2.97;;
12762;SDS011;6445;52.490;13.378;2023-02-24T04:00:20;12.27;;;2.97;;
12762;SDS011;6445;52.490;13.378;2023-02-24T04:03:25;14.93;;;4.05;;
12762;SDS011;6445;52.490;13.378;2023-02-24T04:06:04;16.52;;;3.88;;
12762;SDS011;6445;52.490;13.378;2023-02-24T04:11:33;8.45;;;3.38;;
12762;SDS011;6445;52.490;13.378;2023-02-24T04:14:07;13.85;;;3.65;;
12762;SDS011;6445;52.490;13.378;2023-02-24T04:16:43;14.75;;;3.70;;
12762;SDS011;6445;52.490;13.378;2023-02-24T04:19:16;10.77;;;3.28;;
12762;SDS011;6445;52.490;13.378;2023-02-24T04:21:44;10.30;;;3.10;;
12762;SDS011;6445;52.490;13.378;2023-02-24T04:24:16;20.55;;;4.22;;
12762;SDS011;6445;52.490;13.378;2023-02-24T04:26:44;15.60;;;3.65;;
12762;SDS011;6445;52.490;13.378;2023-02-24T04:29:11;15.68;;;4.03;;
12762;SDS011;6445;52.490;13.378;2023-02-24T04:31:43;9.45;;;3.20;;
12762;SDS011;6445;52.490;13.378;2023-02-24T04:34:16;10.98;;;3.88;;
12762;SDS011;6445;52.490;13.378;2023-02-24T04:36:44;12.60;;;4.35;;
12762;SDS011;6445;52.490;13.378;2023-02-24T04:39:13;16.73;;;3.90;;
12762;SDS011;6445;52.490;13.378;2023-02-24T04:41:42;13.32;;;3.60;;
12762;SDS011;6445;52.490;13.378;2023-02-24T04:44:08;8.85;;;3.22;;
12762;SDS011;6445;52.490;13.378;2023-02-24T04:46:33;9.15;;;3.13;;
12762;SDS011;6445;52.490;13.378;2023-02-24T04:48:58;11.75;;;3.05;;
12762;SDS011;6445;52.490;13.378;2023-02-24T04:51:26;8.70;;;2.75;;
12762;SDS011;6445;52.490;13.378;2023-02-24T04:53:55;17.25;;;3.50;;
12762;SDS011;6445;52.490;13.378;2023-02-24T04:56:21;14.18;;;3.50;;
12762;SDS011;6445;52.490;13.378;2023-02-24T04:58:46;13.52;;;3.30;;
12762;SDS011;6445;52.490;13.378;2023-02-24T05:01:11;7.68;;;3.03;;
12762;SDS011;6445;52.490;13.378;2023-02-24T05:03:37;13.40;;;3.25;;
12762;SDS011;6445;52.490;13.378;2023-02-24T05:06:06;10.38;;;3.10;;
12762;SDS011;6445;52.490;13.378;2023-02-24T05:08:32;15.48;;;3.25;;
12762;SDS011;6445;52.490;13.378;2023-02-24T05:10:58;14.10;;;3.03;;
12762;SDS011;6445;52.490;13.378;2023-02-24T05:13:28;12.75;;;2.90;;
12762;SDS011;6445;52.490;13.378;2023-02-24T05:15:56;10.30;;;2.90;;
12762;SDS011;6445;52.490;13.378;2023-02-24T05:18:23;12.07;;;2.72;;
12762;SDS011;6445;52.490;13.378;2023-02-24T05:20:50;8.25;;;2.78;;
12762;SDS011;6445;52.490;13.378;2023-02-24T05:23:43;10.18;;;3.13;;
12762;SDS011;6445;52.490;13.378;2023-02-24T05:26:10;8.93;;;2.47;;
12762;SDS011;6445;52.490;13.378;2023-02-24T05:28:40;11.10;;;3.05;;
12762;SDS011;6445;52.490;13.378;2023-02-24T05:31:06;10.88;;;2.58;;
12762;SDS011;6445;52.490;13.378;2023-02-24T05:33:34;9.82;;;2.45;;
12762;SDS011;6445;52.490;13.378;2023-02-24T05:36:02;10.70;;;3.28;;
12762;SDS011;6445;52.490;13.378;2023-02-24T05:38:29;15.55;;;2.70;;
12762;SDS011;6445;52.490;13.378;2023-02-24T05:40:54;8.27;;;2.33;;
12762;SDS011;6445;52.490;13.378;2023-02-24T05:43:28;10.25;;;2.28;;
12762;SDS011;6445;52.490;13.378;2023-02-24T05:45:58;9.02;;;2.05;;
12762;SDS011;6445;52.490;13.378;2023-02-24T05:48:24;8.98;;;2.38;;
12762;SDS011;6445;52.490;13.378;2023-02-24T05:50:50;10.93;;;3.10;;
12762;SDS011;6445;52.490;13.378;2023-02-24T05:53:16;8.18;;;2.60;;
12762;SDS011;6445;52.490;13.378;2023-02-24T05:55:43;9.18;;;2.20;;
12762;SDS011;6445;52.490;13.378;2023-02-24T05:58:08;7.00;;;2.13;;
12762;SDS011;6445;52.490;13.378;2023-02-24T06:00:34;9.00;;;2.10;;
12762;SDS011;6445;52.490;13.378;2023-02-24T06:03:03;12.30;;;2.50;;
12762;SDS011;6445;52.490;13.378;2023-02-24T06:05:33;11.20;;;2.05;;
12762;SDS011;6445;52.490;13.378;2023-02-24T06:07:59;9.25;;;2.00;;
12762;SDS011;6445;52.490;13.378;2023-02-24T06:10:35;11.73;;;2.10;;
12762;SDS011;6445;52.490;13.378;2023-02-24T06:13:01;11.57;;;1.85;;
12762;SDS011;6445;52.490;13.378;2023-02-24T06:15:28;7.45;;;2.42;;
12762;SDS011;6445;52.490;13.378;2023-02-24T06:17:53;8.00;;;2.30;;
12762;SDS011;6445;52.490;13.378;2023-02-24T06:20:20;8.88;;;2.10;;
12762;SDS011;6445;52.490;13.378;2023-02-24T06:22:50;6.47;;;2.10;;
12762;SDS011;6445;52.490;13.378;2023-02-24T06:25:18;11.00;;;2.53;;
12762;SDS011;6445;52.490;13.378;2023-02-24T06:27:44;6.25;;;2.03;;
12762;SDS011;6445;52.490;13.378;2023-02-24T06:30:09;9.15;;;2.38;;
12762;SDS011;6445;52.490;13.378;2023-02-24T06:32:35;8.77;;;2.00;;
12762;SDS011;6445;52.490;13.378;2023-02-24T06:35:00;6.20;;;1.83;;
12762;SDS011;6445;52.490;13.378;2023-02-24T06:37:26;8.00;;;1.92;;
12762;SDS011;6445;52.490;13.378;2023-02-24T06:39:52;8.23;;;2.30;;
12762;SDS011;6445;52.490;13.378;2023-02-24T06:42:17;10.32;;;1.90;;
12762;SDS011;6445;52.490;13.378;2023-02-24T06:44:42;7.22;;;2.10;;
12762;SDS011;6445;52.490;13.378;2023-02-24T06:47:09;9.15;;;2.30;;
12762;SDS011;6445;52.490;13.378;2023-02-24T06:49:36;7.85;;;2.00;;
12762;SDS011;6445;52.490;13.378;2023-02-24T06:52:02;11.75;;;1.98;;
12762;SDS011;6445;52.490;13.378;2023-02-24T06:54:27;6.97;;;1.83;;
12762;SDS011;6445;52.490;13.378;2023-02-24T06:56:54;8.32;;;2.03;;
12762;SDS011;6445;52.490;13.378;2023-02-24T06:59:23;8.32;;;1.98;;
12762;SDS011;6445;52.490;13.378;2023-02-24T07:01:52;7.28;;;2.25;;
12762;SDS011;6445;52.490;13.378;2023-02-24T07:04:18;10.15;;;2.40;;
12762;SDS011;6445;52.490;13.378;2023-02-24T07:06:46;9.50;;;2.13;;
12762;SDS011;6445;52.490;13.378;2023-02-24T07:09:16;8.43;;;2.05;;
12762;SDS011;6445;52.490;13.378;2023-02-24T07:11:44;7.63;;;1.83;;
12762;SDS011;6445;52.490;13.378;2023-02-24T07:14:16;7.70;;;2.63;;
12762;SDS011;6445;52.490;13.378;2023-02-24T07:16:46;9.57;;;2.25;;
12762;SDS011;6445;52.490;13.378;2023-02-24T07:19:16;4.78;;;2.10;;
12762;SDS011;6445;52.490;13.378;2023-02-24T07:21:42;6.18;;;1.83;;
12762;SDS011;6445;52.490;13.378;2023-02-24T07:24:14;7.82;;;1.88;;
12762;SDS011;6445;52.490;13.378;2023-02-24T07:26:53;7.47;;;2.17;;
12762;SDS011;6445;52.490;13.378;2023-02-24T07:29:20;10.80;;;3.85;;
12762;SDS011;6445;52.490;13.378;2023-02-24T07:31:47;8.15;;;2.10;;
12762;SDS011;6445;52.490;13.378;2023-02-24T07:34:12;7.90;;;2.00;;
12762;SDS011;6445;52.490;13.378;2023-02-24T07:36:38;7.05;;;2.40;;
12762;SDS011;6445;52.490;13.378;2023-02-24T07:39:13;7.80;;;1.80;;
12762;SDS011;6445;52.490;13.378;2023-02-24T07:41:39;5.88;;;2.13;;
12762;SDS011;6445;52.490;13.378;2023-02-24T07:44:09;6.10;;;2.10;;
12762;SDS011;6445;52.490;13.378;2023-02-24T07:46:34;5.85;;;2.08;;
12762;SDS011;6445;52.490;13.378;2023-02-24T07:49:00;6.22;;;2.10;;
12762;SDS011;6445;52.490;13.378;2023-02-24T07:51:27;8.13;;;2.33;;
12762;SDS011;6445;52.490;13.378;2023-02-24T07:53:54;10.15;;;2.38;;
12762;SDS011;6445;52.490;13.378;2023-02-24T07:56:22;4.95;;;2.40;;
12762;SDS011;6445;52.490;13.378;2023-02-24T07:58:52;7.22;;;2.53;;
12762;SDS011;6445;52.490;13.378;2023-02-24T08:01:23;8.63;;;2.38;;
12762;SDS011;6445;52.490;13.378;2023-02-24T08:03:54;10.48;;;2.20;;
12762;SDS011;6445;52.490;13.378;2023-02-24T08:06:22;5.75;;;2.30;;
12762;SDS011;6445;52.490;13.378;2023-02-24T08:08:54;9.10;;;2.70;;
12762;SDS011;6445;52.490;13.378;2023-02-24T08:11:26;9.70;;;2.47;;
12762;SDS011;6445;52.490;13.378;2023-02-24T08:14:02;4.00;;;1.90;;
12762;SDS011;6445;52.490;13.378;2023-02-24T08:16:32;7.32;;;2.20;;
12762;SDS011;6445;52.490;13.378;2023-02-24T08:19:10;5.78;;;2.15;;
12762;SDS011;6445;52.490;13.378;2023-02-24T08:21:40;11.38;;;2.53;;
12762;SDS011;6445;52.490;13.378;2023-02-24T08:24:12;7.97;;;2.53;;
12762;SDS011;6445;52.490;13.378;2023-02-24T08:26:42;7.90;;;2.20;;
12762;SDS011;6445;52.490;13.378;2023-02-24T08:29:09;6.80;;;2.00;;
12762;SDS011;6445;52.490;13.378;2023-02-24T08:31:35;8.52;;;2.35;;
12762;SDS011;6445;52.490;13.378;2023-02-24T08:34:00;5.18;;;2.22;;
12762;SDS011;6445;52.490;13.378;2023-02-24T08:36:26;8.73;;;2.47;;
12762;SDS011;6445;52.490;13.378;2023-02-24T08:38:51;5.93;;;2.03;;
12762;SDS011;6445;52.490;13.378;2023-02-24T08:41:18;8.05;;;2.65;;
12762;SDS011;6445;52.490;13.378;2023-02-24T08:43:46;7.78;;;2.30;;
12762;SDS011;6445;52.490;13.378;2023-02-24T08:48:50;10.25;;;2.67;;
12762;SDS011;6445;52.490;13.378;2023-02-24T08:53:59;10.25;;;3.05;;
12762;SDS011;6445;52.490;13.378;2023-02-24T08:56:28;11.98;;;2.95;;
12762;SDS011;6445;52.490;13.378;2023-02-24T08:58:58;11.23;;;2.80;;
12762;SDS011;6445;52.490;13.378;2023-02-24T09:01:30;7.78;;;2.20;;
12762;SDS011;6445;52.490;13.378;2023-02-24T09:04:08;9.55;;;2.55;;
12762;SDS011;6445;52.490;13.378;2023-02-24T09:06:42;12.38;;;2.85;;
12762;SDS011;6445;52.490;13.378;2023-02-24T09:09:14;10.52;;;4.03;;
12762;SDS011;6445;52.490;13.378;2023-02-24T09:11:42;4.53;;;2.53;;
12762;SDS011;6445;52.490;13.378;2023-02-24T09:14:13;7.78;;;2.63;;
12762;SDS011;6445;52.490;13.378;2023-02-24T09:16:45;6.93;;;2.70;;
12762;SDS011;6445;52.490;13.378;2023-02-24T09:19:39;5.72;;;2.47;;
12762;SDS011;6445;52.490;13.378;2023-02-24T09:22:25;8.40;;;2.92;;
12762;SDS011;6445;52.490;13.378;2023-02-24T09:28:04;7.57;;;2.58;;
12762;SDS011;6445;52.490;13.378;2023-02-24T09:30:47;7.43;;;2.45;;
12762;SDS011;6445;52.490;13.378;2023-02-24T09:35:45;8.77;;;2.80;;
12762;SDS011;6445;52.490;13.378;2023-02-24T09:38:13;6.68;;;2.38;;
12762;SDS011;6445;52.490;13.378;2023-02-24T09:40:40;8.18;;;2.20;;
12762;SDS011;6445;52.490;13.378;2023-02-24T09:43:24;8.90;;;2.15;;
12762;SDS011;6445;52.490;13.378;2023-02-24T09:46:00;7.75;;;3.13;;
12762;SDS011;6445;52.490;13.378;2023-02-24T09:48:47;7.28;;;2.28;;
12762;SDS011;6445;52.490;13.378;2023-02-24T09:51:18;6.30;;;2.45;;
12762;SDS011;6445;52.490;13.378;2023-02-24T09:53:45;4.75;;;2.17;;
12762;SDS011;6445;52.490;13.378;2023-02-24T09:56:17;9.80;;;2.95;;
12762;SDS011;6445;52.490;13.378;2023-02-24T10:01:43;10.07;;;2.53;;
12762;SDS011;6445;52.490;13.378;2023-02-24T10:07:14;4.85;;;2.00;;
12762;SDS011;6445;52.490;13.378;2023-02-24T10:09:43;7.85;;;2.25;;
12762;SDS011;6445;52.490;13.378;2023-02-24T10:14:50;6.50;;;2.28;;
12762;SDS011;6445;52.490;13.378;2023-02-24T10:17:40;6.25;;;2.17;;
12762;SDS011;6445;52.490;13.378;2023-02-24T10:23:07;3.95;;;2.13;;
12762;SDS011;6445;52.490;13.378;2023-02-24T10:25:57;5.43;;;2.22;;
12762;SDS011;6445;52.490;13.378;2023-02-24T10:31:16;5.15;;;1.98;;
12762;SDS011;6445;52.490;13.378;2023-02-24T10:33:54;4.30;;;1.75;;
12762;SDS011;6445;52.490;13.378;2023-02-24T10:36:25;8.93;;;3.28;;
12762;SDS011;6445;52.490;13.378;2023-02-24T10:39:16;6.75;;;1.80;;
12762;SDS011;6445;52.490;13.378;2023-02-24T10:41:56;12.32;;;2.10;;
12762;SDS011;6445;52.490;13.378;2023-02-24T10:44:39;10.80;;;1.63;;
12762;SDS011;6445;52.490;13.378;2023-02-24T10:47:19;4.22;;;1.70;;
12762;SDS011;6445;52.490;13.378;2023-02-24T10:49:55;2.70;;;1.35;;
12762;SDS011;6445;52.490;13.378;2023-02-24T10:52:28;4.47;;;1.88;;
12762;SDS011;6445;52.490;13.378;2023-02-24T10:58:33;8.57;;;2.00;;
12762;SDS011;6445;52.490;13.378;2023-02-24T11:01:16;6.82;;;2.15;;
12762;SDS011;6445;52.490;13.378;2023-02-24T11:03:54;7.50;;;2.28;;
12762;SDS011;6445;52.490;13.378;2023-02-24T11:06:46;7.78;;;1.90;;
12762;SDS011;6445;52.490;13.378;2023-02-24T11:09:22;9.43;;;2.17;;
12762;SDS011;6445;52.490;13.378;2023-02-24T11:11:52;10.13;;;2.63;;
12762;SDS011;6445;52.490;13.378;2023-02-24T11:14:54;7.85;;;2.10;;
12762;SDS011;6445;52.490;13.378;2023-02-24T11:17:58;5.78;;;2.03;;
12762;SDS011;6445;52.490;13.378;2023-02-24T11:20:29;5.05;;;2.17;;
12762;SDS011;6445;52.490;13.378;2023-02-24T11:23:02;5.50;;;2.20;;
12762;SDS011;6445;52.490;13.378;2023-02-24T11:25:34;6.13;;;2.22;;
12762;SDS011;6445;52.490;13.378;2023-02-24T11:28:03;7.55;;;2.53;;
12762;SDS011;6445;52.490;13.378;2023-02-24T11:30:43;7.05;;;2.13;;
12762;SDS011;6445;52.490;13.378;2023-02-24T11:33:23;5.25;;;2.10;;
12762;SDS011;6445;52.490;13.378;2023-02-24T11:36:21;10.65;;;4.13;;
12762;SDS011;6445;52.490;13.378;2023-02-24T11:39:26;7.82;;;2.47;;
12762;SDS011;6445;52.490;13.378;2023-02-24T11:42:08;6.18;;;2.08;;
12762;SDS011;6445;52.490;13.378;2023-02-24T11:48:02;6.07;;;2.75;;
12762;SDS011;6445;52.490;13.378;2023-02-24T11:50:43;9.98;;;3.28;;
12762;SDS011;6445;52.490;13.378;2023-02-24T11:53:15;7.43;;;2.85;;
12762;SDS011;6445;52.490;13.378;2023-02-24T11:55:49;8.35;;;3.10;;
12762;SDS011;6445;52.490;13.378;2023-02-24T11:58:23;4.72;;;2.60;;
12762;SDS011;6445;52.490;13.378;2023-02-24T12:01:07;8.07;;;2.97;;
12762;SDS011;6445;52.490;13.378;2023-02-24T12:06:20;9.00;;;2.85;;
12762;SDS011;6445;52.490;13.378;2023-02-24T12:08:52;9.15;;;2.45;;
12762;SDS011;6445;52.490;13.378;2023-02-24T12:11:25;7.57;;;2.85;;
12762;SDS011;6445;52.490;13.378;2023-02-24T12:16:55;6.20;;;2.30;;
12762;SDS011;6445;52.490;13.378;2023-02-24T12:19:39;7.50;;;2.42;;
12762;SDS011;6445;52.490;13.378;2023-02-24T12:22:15;6.95;;;2.70;;
12762;SDS011;6445;52.490;13.378;2023-02-24T12:24:44;6.82;;;2.60;;
12762;SDS011;6445;52.490;13.378;2023-02-24T12:27:32;7.57;;;2.70;;
12762;SDS011;6445;52.490;13.378;2023-02-24T12:30:20;7.43;;;3.20;;
12762;SDS011;6445;52.490;13.378;2023-02-24T12:33:06;9.52;;;2.83;;
12762;SDS011;6445;52.490;13.378;2023-02-24T12:35:52;7.32;;;3.42;;
12762;SDS011;6445;52.490;13.378;2023-02-24T12:38:34;10.02;;;3.25;;
12762;SDS011;6445;52.490;13.378;2023-02-24T12:41:18;7.10;;;3.00;;
12762;SDS011;6445;52.490;13.378;2023-02-24T12:46:40;9.10;;;3.08;;
12762;SDS011;6445;52.490;13.378;2023-02-24T12:49:21;6.95;;;3.17;;
12762;SDS011;6445;52.490;13.378;2023-02-24T12:54:43;5.03;;;2.08;;
12762;SDS011;6445;52.490;13.378;2023-02-24T12:59:48;6.20;;;2.20;;
12762;SDS011;6445;52.490;13.378;2023-02-24T13:02:28;3.85;;;2.35;;
12762;SDS011;6445;52.490;13.378;2023-02-24T13:05:15;3.95;;;2.30;;
12762;SDS011;6445;52.490;13.378;2023-02-24T13:10:49;7.60;;;2.70;;
12762;SDS011;6445;52.490;13.378;2023-02-24T13:15:53;5.97;;;3.13;;
12762;SDS011;6445;52.490;13.378;2023-02-24T13:18:24;10.32;;;3.05;;
12762;SDS011;6445;52.490;13.378;2023-02-24T13:21:03;5.68;;;2.97;;
12762;SDS011;6445;52.490;13.378;2023-02-24T13:23:55;8.43;;;3.47;;
12762;SDS011;6445;52.490;13.378;2023-02-24T13:26:25;5.25;;;3.25;;
12762;SDS011;6445;52.490;13.378;2023-02-24T13:29:00;5.65;;;2.95;;
12762;SDS011;6445;52.490;13.378;2023-02-24T13:31:40;7.75;;;3.20;;
12762;SDS011;6445;52.490;13.378;2023-02-24T13:34:12;3.80;;;2.55;;
12762;SDS011;6445;52.490;13.378;2023-02-24T13:36:44;6.18;;;3.30;;
12762;SDS011;6445;52.490;13.378;2023-02-24T13:42:39;5.35;;;2.75;;
12762;SDS011;6445;52.490;13.378;2023-02-24T13:45:00;8.30;;;2.97;;
12762;SDS011;6445;52.490;13.378;2023-02-24T13:47:53;27.42;;;14.75;;
12762;SDS011;6445;52.490;13.378;2023-02-24T13:50:22;5.75;;;2.92;;
12762;SDS011;6445;52.490;13.378;2023-02-24T14:01:27;6.70;;;3.10;;
12762;SDS011;6445;52.490;13.378;2023-02-24T14:04:13;7.50;;;2.95;;
12762;SDS011;6445;52.490;13.378;2023-02-24T14:06:45;5.25;;;2.55;;
12762;SDS011;6445;52.490;13.378;2023-02-24T14:09:14;5.90;;;2.53;;
12762;SDS011;6445;52.490;13.378;2023-02-24T14:11:42;6.18;;;3.03;;
12762;SDS011;6445;52.490;13.378;2023-02-24T14:14:11;5.78;;;3.63;;
12762;SDS011;6445;52.490;13.378;2023-02-24T14:16:40;5.10;;;3.45;;
12762;SDS011;6445;52.490;13.378;2023-02-24T14:19:12;8.13;;;3.85;;
12762;SDS011;6445;52.490;13.378;2023-02-24T14:21:45;26.42;;;15.20;;
12762;SDS011;6445;52.490;13.378;2023-02-24T14:24:12;7.25;;;3.67;;
12762;SDS011;6445;52.490;13.378;2023-02-24T14:26:46;5.68;;;3.10;;
12762;SDS011;6445;52.490;13.378;2023-02-24T14:29:16;5.53;;;2.90;;
12762;SDS011;6445;52.490;13.378;2023-02-24T14:31:58;4.50;;;2.80;;
12762;SDS011;6445;52.490;13.378;2023-02-24T14:34:25;5.00;;;2.90;;
12762;SDS011;6445;52.490;13.378;2023-02-24T14:36:56;5.70;;;3.05;;
12762;SDS011;6445;52.490;13.378;2023-02-24T14:39:27;6.20;;;3.10;;
12762;SDS011;6445;52.490;13.378;2023-02-24T14:44:31;5.15;;;2.95;;
12762;SDS011;6445;52.490;13.378;2023-02-24T14:46:59;5.40;;;2.70;;
12762;SDS011;6445;52.490;13.378;2023-02-24T14:49:28;6.57;;;3.00;;
12762;SDS011;6445;52.490;13.378;2023-02-24T14:51:59;5.32;;;3.15;;
12762;SDS011;6445;52.490;13.378;2023-02-24T14:54:36;5.25;;;2.63;;
12762;SDS011;6445;52.490;13.378;2023-02-24T14:57:12;6.53;;;2.95;;
12762;SDS011;6445;52.490;13.378;2023-02-24T14:59:42;4.78;;;2.80;;
12762;SDS011;6445;52.490;13.378;2023-02-24T15:02:16;6.38;;;2.85;;
12762;SDS011;6445;52.490;13.378;2023-02-24T15:04:45;5.57;;;3.13;;
12762;SDS011;6445;52.490;13.378;2023-02-24T15:07:16;4.00;;;2.88;;
12762;SDS011;6445;52.490;13.378;2023-02-24T15:09:43;6.72;;;3.50;;
12762;SDS011;6445;52.490;13.378;2023-02-24T15:12:18;4.78;;;2.78;;
12762;SDS011;6445;52.490;13.378;2023-02-24T15:14:51;4.63;;;2.63;;
12762;SDS011;6445;52.490;13.378;2023-02-24T15:17:20;6.72;;;3.20;;
12762;SDS011;6445;52.490;13.378;2023-02-24T15:19:47;4.30;;;3.00;;
12762;SDS011;6445;52.490;13.378;2023-02-24T15:24:45;4.18;;;2.80;;
12762;SDS011;6445;52.490;13.378;2023-02-24T15:29:38;5.20;;;2.78;;
12762;SDS011;6445;52.490;13.378;2023-02-24T15:32:04;4.75;;;3.00;;
12762;SDS011;6445;52.490;13.378;2023-02-24T15:34:42;3.17;;;2.72;;
12762;SDS011;6445;52.490;13.378;2023-02-24T15:37:13;3.53;;;2.65;;
12762;SDS011;6445;52.490;13.378;2023-02-24T15:39:41;5.95;;;2.83;;
12762;SDS011;6445;52.490;13.378;2023-02-24T15:42:14;3.60;;;2.85;;
12762;SDS011;6445;52.490;13.378;2023-02-24T15:44:50;3.63;;;2.92;;
12762;SDS011;6445;52.490;13.378;2023-02-24T15:47:21;3.72;;;2.97;;
12762;SDS011;6445;52.490;13.378;2023-02-24T15:49:48;4.07;;;2.80;;
12762;SDS011;6445;52.490;13.378;2023-02-24T15:52:14;4.45;;;3.10;;
12762;SDS011;6445;52.490;13.378;2023-02-24T15:54:43;4.00;;;2.88;;
12762;SDS011;6445;52.490;13.378;2023-02-24T15:57:09;4.95;;;2.88;;
12762;SDS011;6445;52.490;13.378;2023-02-24T15:59:38;5.40;;;3.67;;
12762;SDS011;6445;52.490;13.378;2023-02-24T16:02:09;4.32;;;3.40;;
12762;SDS011;6445;52.490;13.378;2023-02-24T16:04:36;5.88;;;3.40;;
12762;SDS011;6445;52.490;13.378;2023-02-24T16:07:02;6.05;;;4.15;;
12762;SDS011;6445;52.490;13.378;2023-02-24T16:09:34;5.20;;;3.38;;
12762;SDS011;6445;52.490;13.378;2023-02-24T16:12:06;4.90;;;3.75;;
12762;SDS011;6445;52.490;13.378;2023-02-24T16:14:36;3.97;;;3.58;;
12762;SDS011;6445;52.490;13.378;2023-02-24T16:17:02;5.65;;;4.30;;
12762;SDS011;6445;52.490;13.378;2023-02-24T16:19:32;5.13;;;4.28;;
12762;SDS011;6445;52.490;13.378;2023-02-24T16:21:58;5.47;;;4.85;;
12762;SDS011;6445;52.490;13.378;2023-02-24T16:24:23;8.45;;;5.82;;
12762;SDS011;6445;52.490;13.378;2023-02-24T16:26:48;48.58;;;28.83;;
12762;SDS011;6445;52.490;13.378;2023-02-24T16:29:13;9.57;;;5.20;;
12762;SDS011;6445;52.490;13.378;2023-02-24T16:31:39;5.75;;;5.00;;
12762;SDS011;6445;52.490;13.378;2023-02-24T16:34:05;8.23;;;5.45;;
12762;SDS011;6445;52.490;13.378;2023-02-24T16:36:30;7.35;;;5.53;;